Goodrich, Texas
Current Conditions -  °F | °C
As of 4:55 AM on Friday 31 Oct 2014 (Local Time) from K6R3 Reporting Station
Clear Clear  
Wind Chill: 54°   Ceiling: Unl
Heat Index: 54°   Visibility: 7mi
Dew Point: 53°   Wind: 0mph
Humidity: 98%   Direction: NA
Pressure: 30.11"   Gusts: NA
Location:  30.61°N, 94.95°W
Report Text: K6R3 310955Z AUTO 00000KT 7SM CLR 12/12 A3011 RMK AO2 T01200117
Loading
Personal Weather Stations






























Interactive Weather Map
Tropical Storm Tracking
New forecast layout! Learn more

10-Day Weather Forecast

Advertisements
Track Severe Weather on mobile